الصفحة الرئيسية
METAR-TAF:

METAR-TAF

مطار :

مطار نواكشوط الدولي

نواكشوط, موريتانيا

دائرة عرض: 18-18-36N, خط طول: 015-58-11W, ارتفاع: 3 متر

مراقبة الطقس الحالي

تاريخ ووقت الإصدار 29 دقيقة قبل الساعة 03:30UTC
ريح 13 عقدة من الشمال/الشمال الغربي
درجة الحرارة 24°درجة مئوية
الرطوبة 94%
ضغط 1010 hPa
الرؤية 10 كم أو أكثر
غيوم مفككة على ارتفاع 600 قدم

METAR: GQNO 240330Z 33013KT 9999 BKN006 24/23 Q1010 NOSIG

زمن: 03:59 (03:59 UTC)

توقعات

تاريخ ووقت الإصدار 4ساعات و 59 دقيقة قبل الساعة 23:00UTC
التوقعات صالحة من24 الساعة 00 UTC إلى 25 الساعة 06 UTC
ريح 10 عقدة من الشمال/الشمال الغربي
الرؤية: 8000 متر
غيوم قليلة على ارتفاع 600 قدم
نظرية الاحتمالات 40% :
مؤقت
من 24 الساعة 03 UTC إلى 24 الساعة 07 UTC
غيوم مفككة على ارتفاع 600 قدم
نظرية الاحتمالات 30% :
مؤقت
من 24 الساعة 16 UTC إلى 24 الساعة 19 UTC
الرؤية: 4000 متر
هبوب الرمال

TAF: GQNO 232300Z 2400/2506 33010KT 8000 FEW006 PROB40 TEMPO 2403/2407 BKN006 PROB30 TEMPO 2416/2419 4000 BLSA

أرصاد الطقس والتوقعات من أكثر من 4000 مطار (تقارير الطقس للمطار METAR والتنبؤ بالطقس بالمطارTAF).

المحطات المتاحة هي النقط الصفراء والحمراء على الخريطة.

حرك المؤشر فوق النقطة لمعرفة اسم المحطة.

ثم انقر لمعرفة أرصاد وتوقعات الطقس.

لتغيير الخارطة: اضغط على الأزرار الخضراء مع رمز الصليب الأسود للتكبير. على الزر الأخضر مع شرطة للتصغير، أو على الأسهم الخضراء للخرائط المجاورة.


METAR-TAF: